sensor_id;sensor_type;location;lat;lon;timestamp;pressure;altitude;pressure_sealevel;temperature;humidity
78562;BME280;68963;52.138;5.446;2023-04-24T00:00:06;99951.34;;;9.57;100.00
78562;BME280;68963;52.138;5.446;2023-04-24T00:02:36;99968.91;;;9.57;100.00
78562;BME280;68963;52.138;5.446;2023-04-24T00:05:07;99975.00;;;9.57;100.00
78562;BME280;68963;52.138;5.446;2023-04-24T00:07:34;99973.78;;;9.53;100.00
78562;BME280;68963;52.138;5.446;2023-04-24T00:10:01;99975.59;;;9.53;100.00
78562;BME280;68963;52.138;5.446;2023-04-24T00:12:27;99969.53;;;9.52;100.00
78562;BME280;68963;52.138;5.446;2023-04-24T00:14:54;99980.44;;;9.49;100.00
78562;BME280;68963;52.138;5.446;2023-04-24T00:17:20;99990.38;;;9.47;100.00
78562;BME280;68963;52.138;5.446;2023-04-24T00:19:48;99978.03;;;9.48;100.00
78562;BME280;68963;52.138;5.446;2023-04-24T00:22:17;99991.34;;;9.46;100.00
78562;BME280;68963;52.138;5.446;2023-04-24T00:24:43;99990.75;;;9.44;100.00
78562;BME280;68963;52.138;5.446;2023-04-24T00:27:10;99989.34;;;9.41;100.00
78562;BME280;68963;52.138;5.446;2023-04-24T00:29:36;99994.41;;;9.43;100.00
78562;BME280;68963;52.138;5.446;2023-04-24T00:32:03;99995.63;;;9.40;100.00
78562;BME280;68963;52.138;5.446;2023-04-24T00:34:29;100000.88;;;9.40;100.00
78562;BME280;68963;52.138;5.446;2023-04-24T00:36:56;99999.66;;;9.36;100.00
78562;BME280;68963;52.138;5.446;2023-04-24T00:39:22;99999.03;;;9.34;100.00
78562;BME280;68963;52.138;5.446;2023-04-24T00:41:49;99986.91;;;9.33;100.00
78562;BME280;68963;52.138;5.446;2023-04-24T00:44:17;99996.00;;;9.31;100.00
78562;BME280;68963;52.138;5.446;2023-04-24T00:46:43;99996.22;;;9.29;100.00
78562;BME280;68963;52.138;5.446;2023-04-24T00:49:10;99996.38;;;9.28;100.00
78562;BME280;68963;52.138;5.446;2023-04-24T00:51:38;100007.09;;;9.26;100.00
78562;BME280;68963;52.138;5.446;2023-04-24T00:54:04;100001.84;;;9.26;100.00
78562;BME280;68963;52.138;5.446;2023-04-24T00:56:31;100010.94;;;9.24;100.00
78562;BME280;68963;52.138;5.446;2023-04-24T00:58:59;100016.81;;;9.26;100.00
78562;BME280;68963;52.138;5.446;2023-04-24T01:01:25;100009.75;;;9.26;100.00
78562;BME280;68963;52.138;5.446;2023-04-24T01:03:52;100011.56;;;9.26;100.00
78562;BME280;68963;52.138;5.446;2023-04-24T01:06:19;100013.56;;;9.24;100.00
78562;BME280;68963;52.138;5.446;2023-04-24T01:08:47;100015.38;;;9.23;100.00
78562;BME280;68963;52.138;5.446;2023-04-24T01:11:14;100019.63;;;9.24;100.00
78562;BME280;68963;52.138;5.446;2023-04-24T01:13:40;100024.06;;;9.24;100.00
78562;BME280;68963;52.138;5.446;2023-04-24T01:16:07;100024.28;;;9.22;100.00
78562;BME280;68963;52.138;5.446;2023-04-24T01:18:33;100025.88;;;9.16;100.00
78562;BME280;68963;52.138;5.446;2023-04-24T01:21:02;100028.13;;;9.19;100.00
78562;BME280;68963;52.138;5.446;2023-04-24T01:23:30;100029.75;;;9.21;100.00
78562;BME280;68963;52.138;5.446;2023-04-24T01:25:56;100040.25;;;9.21;100.00
78562;BME280;68963;52.138;5.446;2023-04-24T01:28:23;100038.22;;;9.23;100.00
78562;BME280;68963;52.138;5.446;2023-04-24T01:30:49;100038.03;;;9.24;100.00
78562;BME280;68963;52.138;5.446;2023-04-24T01:33:16;100034.59;;;9.24;100.00
78562;BME280;68963;52.138;5.446;2023-04-24T01:35:42;100040.47;;;9.26;100.00
78562;BME280;68963;52.138;5.446;2023-04-24T01:38:09;100041.28;;;9.26;100.00
78562;BME280;68963;52.138;5.446;2023-04-24T01:40:35;100041.06;;;9.28;100.00
78562;BME280;68963;52.138;5.446;2023-04-24T01:43:02;100042.06;;;9.27;100.00
78562;BME280;68963;52.138;5.446;2023-04-24T01:45:28;100043.09;;;9.26;100.00
78562;BME280;68963;52.138;5.446;2023-04-24T01:47:55;100039.84;;;9.24;100.00
78562;BME280;68963;52.138;5.446;2023-04-24T01:50:22;100043.50;;;9.23;100.00
78562;BME280;68963;52.138;5.446;2023-04-24T01:52:49;100046.91;;;9.23;100.00
78562;BME280;68963;52.138;5.446;2023-04-24T01:55:15;100042.28;;;9.25;100.00
78562;BME280;68963;52.138;5.446;2023-04-24T01:57:42;100050.16;;;9.25;100.00
78562;BME280;68963;52.138;5.446;2023-04-24T02:00:09;100042.28;;;9.25;100.00
78562;BME280;68963;52.138;5.446;2023-04-24T02:02:39;100046.13;;;9.29;100.00
78562;BME280;68963;52.138;5.446;2023-04-24T02:05:07;100049.56;;;9.30;100.00
78562;BME280;68963;52.138;5.446;2023-04-24T02:07:34;100047.16;;;9.28;100.00
78562;BME280;68963;52.138;5.446;2023-04-24T02:10:00;100051.56;;;9.28;100.00
78562;BME280;68963;52.138;5.446;2023-04-24T02:12:27;100041.91;;;9.28;100.00
78562;BME280;68963;52.138;5.446;2023-04-24T02:14:53;100042.06;;;9.27;100.00
78562;BME280;68963;52.138;5.446;2023-04-24T02:17:19;100041.28;;;9.26;100.00
78562;BME280;68963;52.138;5.446;2023-04-24T02:19:46;100049.97;;;9.27;100.00
78562;BME280;68963;52.138;5.446;2023-04-24T02:22:12;100046.75;;;9.25;100.00
78562;BME280;68963;52.138;5.446;2023-04-24T02:24:39;100052.19;;;9.23;100.00
78562;BME280;68963;52.138;5.446;2023-04-24T02:27:06;100050.34;;;9.24;100.00
78562;BME280;68963;52.138;5.446;2023-04-24T02:29:32;100040.06;;;9.22;100.00
78562;BME280;68963;52.138;5.446;2023-04-24T02:31:59;100044.69;;;9.20;100.00
78562;BME280;68963;52.138;5.446;2023-04-24T02:34:25;100039.44;;;9.20;100.00
78562;BME280;68963;52.138;5.446;2023-04-24T02:36:52;100042.25;;;9.18;100.00
78562;BME280;68963;52.138;5.446;2023-04-24T02:39:20;100050.53;;;9.15;100.00
78562;BME280;68963;52.138;5.446;2023-04-24T02:41:46;100052.34;;;9.15;100.00
78562;BME280;68963;52.138;5.446;2023-04-24T02:44:13;100047.09;;;9.15;100.00
78562;BME280;68963;52.138;5.446;2023-04-24T02:46:39;100047.31;;;9.13;100.00
78562;BME280;68963;52.138;5.446;2023-04-24T02:49:08;100053.16;;;9.15;100.00
78562;BME280;68963;52.138;5.446;2023-04-24T02:51:34;100047.09;;;9.15;100.00
78562;BME280;68963;52.138;5.446;2023-04-24T02:54:01;100042.88;;;9.14;100.00
78562;BME280;68963;52.138;5.446;2023-04-24T02:56:27;100043.47;;;9.16;100.00
78562;BME280;68963;52.138;5.446;2023-04-24T02:58:53;100046.09;;;9.16;100.00
78562;BME280;68963;52.138;5.446;2023-04-24T03:01:20;100043.47;;;9.16;100.00
78562;BME280;68963;52.138;5.446;2023-04-24T03:03:47;100042.66;;;9.15;100.00
78562;BME280;68963;52.138;5.446;2023-04-24T03:06:13;100040.84;;;9.16;100.00
78562;BME280;68963;52.138;5.446;2023-04-24T03:08:40;100042.66;;;9.15;100.00
78562;BME280;68963;52.138;5.446;2023-04-24T03:11:06;100044.91;;;9.18;100.00
78562;BME280;68963;52.138;5.446;2023-04-24T03:13:33;100043.88;;;9.19;100.00
78562;BME280;68963;52.138;5.446;2023-04-24T03:15:59;100049.13;;;9.19;100.00
78562;BME280;68963;52.138;5.446;2023-04-24T03:18:26;100048.31;;;9.19;100.00
78562;BME280;68963;52.138;5.446;2023-04-24T03:20:52;100048.94;;;9.21;100.00
78562;BME280;68963;52.138;5.446;2023-04-24T03:23:19;100043.88;;;9.19;100.00
78562;BME280;68963;52.138;5.446;2023-04-24T03:25:45;100043.06;;;9.19;100.00
78562;BME280;68963;52.138;5.446;2023-04-24T03:28:14;100042.88;;;9.21;100.00
78562;BME280;68963;52.138;5.446;2023-04-24T03:30:40;100053.41;;;9.21;100.00
78562;BME280;68963;52.138;5.446;2023-04-24T03:33:07;100051.56;;;9.21;100.00
78562;BME280;68963;52.138;5.446;2023-04-24T03:35:34;100053.41;;;9.21;100.00
78562;BME280;68963;52.138;5.446;2023-04-24T03:38:00;100055.63;;;9.17;100.00
78562;BME280;68963;52.138;5.446;2023-04-24T03:40:27;100061.69;;;9.17;100.00
78562;BME280;68963;52.138;5.446;2023-04-24T03:42:55;100058.25;;;9.17;100.00
78562;BME280;68963;52.138;5.446;2023-04-24T03:45:22;100060.03;;;9.16;100.00
78562;BME280;68963;52.138;5.446;2023-04-24T03:47:48;100056.81;;;9.14;100.00
78562;BME280;68963;52.138;5.446;2023-04-24T03:50:15;100053.38;;;9.14;100.00
78562;BME280;68963;52.138;5.446;2023-04-24T03:52:41;100051.94;;;9.11;100.00
78562;BME280;68963;52.138;5.446;2023-04-24T03:55:08;100050.34;;;9.10;100.00
78562;BME280;68963;52.138;5.446;2023-04-24T03:57:34;100053.75;;;9.11;100.00
78562;BME280;68963;52.138;5.446;2023-04-24T04:00:01;100056.41;;;9.11;100.00
78562;BME280;68963;52.138;5.446;2023-04-24T04:02:30;100056.19;;;9.12;100.00
78562;BME280;68963;52.138;5.446;2023-04-24T04:04:57;100066.69;;;9.12;100.00
78562;BME280;68963;52.138;5.446;2023-04-24T04:07:23;100062.25;;;9.13;100.00
78562;BME280;68963;52.138;5.446;2023-04-24T04:09:50;100064.69;;;9.14;100.00
78562;BME280;68963;52.138;5.446;2023-04-24T04:12:16;100065.09;;;9.11;100.00
78562;BME280;68963;52.138;5.446;2023-04-24T04:14:43;100071.53;;;9.09;100.00
78562;BME280;68963;52.138;5.446;2023-04-24T04:17:09;100080.44;;;9.08;100.00
78562;BME280;68963;52.138;5.446;2023-04-24T04:19:36;100075.38;;;9.06;100.00
78562;BME280;68963;52.138;5.446;2023-04-24T04:22:02;100072.34;;;9.03;100.00
78562;BME280;68963;52.138;5.446;2023-04-24T04:24:29;100079.41;;;9.02;100.00
78562;BME280;68963;52.138;5.446;2023-04-24T04:26:55;100071.91;;;8.99;100.00
78562;BME280;68963;52.138;5.446;2023-04-24T04:29:24;100077.34;;;8.98;100.00
78562;BME280;68963;52.138;5.446;2023-04-24T04:31:52;100087.69;;;8.99;100.00
78562;BME280;68963;52.138;5.446;2023-04-24T04:34:18;100084.03;;;9.00;100.00
78562;BME280;68963;52.138;5.446;2023-04-24T04:36:45;100086.88;;;8.99;100.00
78562;BME280;68963;52.138;5.446;2023-04-24T04:39:12;100092.94;;;8.99;100.00
78562;BME280;68963;52.138;5.446;2023-04-24T04:41:41;100092.13;;;8.99;100.00
78562;BME280;68963;52.138;5.446;2023-04-24T04:44:08;100100.59;;;9.01;100.00
78562;BME280;68963;52.138;5.446;2023-04-24T04:46:35;100100.19;;;8.97;100.00
78562;BME280;68963;52.138;5.446;2023-04-24T04:49:03;100096.94;;;8.95;100.00
78562;BME280;68963;52.138;5.446;2023-04-24T04:51:29;100104.84;;;8.95;100.00
78562;BME280;68963;52.138;5.446;2023-04-24T04:53:57;100107.25;;;8.97;100.00
78562;BME280;68963;52.138;5.446;2023-04-24T04:56:23;100112.50;;;8.97;100.00
78562;BME280;68963;52.138;5.446;2023-04-24T04:58:50;100115.75;;;8.99;100.00
78562;BME280;68963;52.138;5.446;2023-04-24T05:01:16;100111.91;;;9.01;100.00
78562;BME280;68963;52.138;5.446;2023-04-24T05:03:43;100120.22;;;9.05;100.00
78562;BME280;68963;52.138;5.446;2023-04-24T05:06:10;100119.81;;;9.08;100.00
78562;BME280;68963;52.138;5.446;2023-04-24T05:08:37;100131.16;;;9.08;100.00
78562;BME280;68963;52.138;5.446;2023-04-24T05:11:03;100129.31;;;9.09;100.00
78562;BME280;68963;52.138;5.446;2023-04-24T05:13:30;100135.00;;;9.12;100.00
78562;BME280;68963;52.138;5.446;2023-04-24T05:16:06;100129.56;;;9.14;100.00
78562;BME280;68963;52.138;5.446;2023-04-24T05:18:33;100142.50;;;9.15;100.00
78562;BME280;68963;52.138;5.446;2023-04-24T05:20:59;100141.09;;;9.19;100.00
78562;BME280;68963;52.138;5.446;2023-04-24T05:23:26;100145.75;;;9.24;100.00
78562;BME280;68963;52.138;5.446;2023-04-24T05:25:52;100144.38;;;9.28;100.00
78562;BME280;68963;52.138;5.446;2023-04-24T05:28:19;100151.84;;;9.31;100.00
78562;BME280;68963;52.138;5.446;2023-04-24T05:30:46;100160.56;;;9.32;100.00
78562;BME280;68963;52.138;5.446;2023-04-24T05:33:12;100165.00;;;9.31;100.00
78562;BME280;68963;52.138;5.446;2023-04-24T05:35:40;100166.81;;;9.31;100.00
78562;BME280;68963;52.138;5.446;2023-04-24T05:38:12;100171.25;;;9.30;100.00
78562;BME280;68963;52.138;5.446;2023-04-24T05:40:39;100176.72;;;9.29;100.00
78562;BME280;68963;52.138;5.446;2023-04-24T05:43:06;100178.94;;;9.25;100.00
78562;BME280;68963;52.138;5.446;2023-04-24T05:45:32;100183.56;;;9.23;100.00
78562;BME280;68963;52.138;5.446;2023-04-24T05:48:02;100185.59;;;9.21;100.00
78562;BME280;68963;52.138;5.446;2023-04-24T05:50:29;100195.28;;;9.21;100.00
78562;BME280;68963;52.138;5.446;2023-04-24T05:52:55;100194.88;;;9.17;100.00
78562;BME280;68963;52.138;5.446;2023-04-24T05:55:25;100200.50;;;9.14;100.00
78562;BME280;68963;52.138;5.446;2023-04-24T05:57:52;100198.44;;;9.09;100.00
78562;BME280;68963;52.138;5.446;2023-04-24T06:00:18;100207.53;;;9.07;100.00
78562;BME280;68963;52.138;5.446;2023-04-24T06:02:46;100221.44;;;9.01;100.00
78562;BME280;68963;52.138;5.446;2023-04-24T06:05:13;100217.38;;;8.98;100.00
78562;BME280;68963;52.138;5.446;2023-04-24T06:07:41;100221.22;;;8.95;100.00
78562;BME280;68963;52.138;5.446;2023-04-24T06:10:08;100226.84;;;8.92;100.00
78562;BME280;68963;52.138;5.446;2023-04-24T06:12:35;100234.72;;;8.92;100.00
78562;BME280;68963;52.138;5.446;2023-04-24T06:15:03;100235.09;;;8.89;100.00
78562;BME280;68963;52.138;5.446;2023-04-24T06:17:31;100240.94;;;8.85;100.00
78562;BME280;68963;52.138;5.446;2023-04-24T06:19:58;100241.09;;;8.83;100.00
78562;BME280;68963;52.138;5.446;2023-04-24T06:22:24;100243.50;;;8.78;100.00
78562;BME280;68963;52.138;5.446;2023-04-24T06:24:51;100242.88;;;8.76;100.00
78562;BME280;68963;52.138;5.446;2023-04-24T06:27:17;100259.03;;;8.73;100.00
78562;BME280;68963;52.138;5.446;2023-04-24T06:29:44;100256.78;;;8.70;100.00
78562;BME280;68963;52.138;5.446;2023-04-24T06:32:10;100269.25;;;8.68;100.00
78562;BME280;68963;52.138;5.446;2023-04-24T06:34:37;100280.56;;;8.68;100.00
78562;BME280;68963;52.138;5.446;2023-04-24T06:37:03;100279.97;;;8.66;100.00
78562;BME280;68963;52.138;5.446;2023-04-24T06:39:30;100274.09;;;8.64;100.00
78562;BME280;68963;52.138;5.446;2023-04-24T06:41:57;100287.41;;;8.63;100.00
78562;BME280;68963;52.138;5.446;2023-04-24T06:44:23;100302.91;;;8.58;100.00
78562;BME280;68963;52.138;5.446;2023-04-24T06:46:50;100310.97;;;8.56;100.00
78562;BME280;68963;52.138;5.446;2023-04-24T06:49:16;100315.41;;;8.56;100.00
78562;BME280;68963;52.138;5.446;2023-04-24T06:51:43;100307.69;;;8.54;100.00
78562;BME280;68963;52.138;5.446;2023-04-24T06:54:10;100325.28;;;8.54;100.00
78562;BME280;68963;52.138;5.446;2023-04-24T06:56:36;100325.66;;;8.51;100.00
78562;BME280;68963;52.138;5.446;2023-04-24T06:59:03;100336.56;;;8.54;100.00
78562;BME280;68963;52.138;5.446;2023-04-24T07:01:30;100336.78;;;8.53;100.00
78562;BME280;68963;52.138;5.446;2023-04-24T07:03:56;100347.28;;;8.53;100.00
78562;BME280;68963;52.138;5.446;2023-04-24T07:06:23;100346.84;;;8.49;100.00
78562;BME280;68963;52.138;5.446;2023-04-24T07:08:51;100353.47;;;8.45;100.00
78562;BME280;68963;52.138;5.446;2023-04-24T07:11:17;100360.69;;;8.43;100.00
78562;BME280;68963;52.138;5.446;2023-04-24T07:13:44;100366.50;;;8.38;100.00
78562;BME280;68963;52.138;5.446;2023-04-24T07:16:10;100372.28;;;8.34;100.00
78562;BME280;68963;52.138;5.446;2023-04-24T07:18:38;100386.31;;;8.26;100.00
78562;BME280;68963;52.138;5.446;2023-04-24T07:21:06;100392.56;;;8.25;100.00
78562;BME280;68963;52.138;5.446;2023-04-24T07:23:33;100391.72;;;8.24;100.00
78562;BME280;68963;52.138;5.446;2023-04-24T07:25:59;100398.63;;;8.26;100.00
78562;BME280;68963;52.138;5.446;2023-04-24T07:28:26;100421.78;;;8.22;100.00
78562;BME280;68963;52.138;5.446;2023-04-24T07:30:53;100406.88;;;8.22;100.00
78562;BME280;68963;52.138;5.446;2023-04-24T07:33:20;100422.59;;;8.22;100.00
78562;BME280;68963;52.138;5.446;2023-04-24T07:35:47;100423.59;;;8.21;100.00
78562;BME280;68963;52.138;5.446;2023-04-24T07:38:14;100435.88;;;8.21;100.00
78562;BME280;68963;52.138;5.446;2023-04-24T07:40:40;100437.09;;;8.18;100.00
78562;BME280;68963;52.138;5.446;2023-04-24T07:43:07;100449.19;;;8.19;100.00
78562;BME280;68963;52.138;5.446;2023-04-24T07:45:33;100462.78;;;8.23;100.00
78562;BME280;68963;52.138;5.446;2023-04-24T07:48:03;100458.34;;;8.23;100.00
78562;BME280;68963;52.138;5.446;2023-04-24T07:50:30;100466.19;;;8.23;100.00
78562;BME280;68963;52.138;5.446;2023-04-24T07:52:56;100466.19;;;8.23;100.00
78562;BME280;68963;52.138;5.446;2023-04-24T07:55:23;100470.28;;;8.26;100.00
78562;BME280;68963;52.138;5.446;2023-04-24T07:57:53;100474.16;;;8.30;100.00
78562;BME280;68963;52.138;5.446;2023-04-24T08:00:20;100474.97;;;8.31;100.00
78562;BME280;68963;52.138;5.446;2023-04-24T08:02:47;100477.97;;;8.28;100.00
78562;BME280;68963;52.138;5.446;2023-04-24T08:05:14;100482.41;;;8.27;100.00
78562;BME280;68963;52.138;5.446;2023-04-24T08:07:40;100489.09;;;8.30;100.00
78562;BME280;68963;52.138;5.446;2023-04-24T08:10:12;100491.53;;;8.31;100.00
78562;BME280;68963;52.138;5.446;2023-04-24T08:12:38;100505.00;;;8.28;100.00
78562;BME280;68963;52.138;5.446;2023-04-24T08:15:05;100519.31;;;8.26;100.00
78562;BME280;68963;52.138;5.446;2023-04-24T08:17:34;100523.94;;;8.23;100.00
78562;BME280;68963;52.138;5.446;2023-04-24T08:20:03;100523.94;;;8.23;100.00
78562;BME280;68963;52.138;5.446;2023-04-24T08:22:31;100538.84;;;8.23;100.00
78562;BME280;68963;52.138;5.446;2023-04-24T08:25:00;100550.72;;;8.19;100.00
78562;BME280;68963;52.138;5.446;2023-04-24T08:27:27;100539.09;;;8.13;100.00
78562;BME280;68963;52.138;5.446;2023-04-24T08:29:54;100552.75;;;8.09;100.00
78562;BME280;68963;52.138;5.446;2023-04-24T08:32:20;100572.47;;;8.05;100.00
78562;BME280;68963;52.138;5.446;2023-04-24T08:34:47;100566.22;;;8.06;100.00
78562;BME280;68963;52.138;5.446;2023-04-24T08:37:15;100570.31;;;8.08;100.00
78562;BME280;68963;52.138;5.446;2023-04-24T08:39:42;100581.81;;;8.07;100.00
78562;BME280;68963;52.138;5.446;2023-04-24T08:42:11;100576.22;;;8.10;100.00
78562;BME280;68963;52.138;5.446;2023-04-24T08:44:37;100578.28;;;8.15;100.00
78562;BME280;68963;52.138;5.446;2023-04-24T08:47:04;100586.09;;;8.23;100.00
78562;BME280;68963;52.138;5.446;2023-04-24T08:49:31;100583.09;;;8.26;100.00
78562;BME280;68963;52.138;5.446;2023-04-24T08:51:58;100593.06;;;8.31;100.00
78562;BME280;68963;52.138;5.446;2023-04-24T08:54:26;100596.50;;;8.31;100.00
78562;BME280;68963;52.138;5.446;2023-04-24T08:56:54;100599.72;;;8.41;100.00
78562;BME280;68963;52.138;5.446;2023-04-24T08:59:24;100610.22;;;8.56;100.00
78562;BME280;68963;52.138;5.446;2023-04-24T09:01:55;100618.09;;;8.56;100.00
78562;BME280;68963;52.138;5.446;2023-04-24T09:04:23;100621.81;;;8.47;100.00
78562;BME280;68963;52.138;5.446;2023-04-24T09:06:55;100619.56;;;8.44;100.00
78562;BME280;68963;52.138;5.446;2023-04-24T09:09:23;100627.69;;;8.49;100.00
78562;BME280;68963;52.138;5.446;2023-04-24T09:11:51;100625.97;;;8.56;100.00
78562;BME280;68963;52.138;5.446;2023-04-24T09:14:19;100639.22;;;8.63;100.00
78562;BME280;68963;52.138;5.446;2023-04-24T09:16:47;100643.91;;;8.67;100.00
78562;BME280;68963;52.138;5.446;2023-04-24T09:19:14;100644.09;;;8.66;100.00
78562;BME280;68963;52.138;5.446;2023-04-24T09:21:45;100634.69;;;8.71;100.00
78562;BME280;68963;52.138;5.446;2023-04-24T09:24:17;100661.94;;;8.85;100.00
78562;BME280;68963;52.138;5.446;2023-04-24T09:26:44;100654.16;;;8.92;100.00
78562;BME280;68963;52.138;5.446;2023-04-24T09:29:16;100655.69;;;9.01;99.20
78562;BME280;68963;52.138;5.446;2023-04-24T09:31:44;100651.25;;;9.16;100.00
78562;BME280;68963;52.138;5.446;2023-04-24T09:34:12;100656.22;;;9.26;98.51
78562;BME280;68963;52.138;5.446;2023-04-24T09:36:41;100658.63;;;9.42;97.18
78562;BME280;68963;52.138;5.446;2023-04-24T09:39:11;100669.88;;;9.51;96.44
78562;BME280;68963;52.138;5.446;2023-04-24T09:41:52;100665.66;;;9.57;95.61
78562;BME280;68963;52.138;5.446;2023-04-24T09:44:21;100679.47;;;9.59;92.99
78562;BME280;68963;52.138;5.446;2023-04-24T09:49:27;100681.44;;;9.57;91.13
78562;BME280;68963;52.138;5.446;2023-04-24T09:54:31;100703.31;;;9.42;93.19
78562;BME280;68963;52.138;5.446;2023-04-24T09:56:57;100699.44;;;9.38;93.97
78562;BME280;68963;52.138;5.446;2023-04-24T09:59:26;100704.88;;;9.37;93.89
78562;BME280;68963;52.138;5.446;2023-04-24T10:01:53;100711.59;;;9.25;94.49
78562;BME280;68963;52.138;5.446;2023-04-24T10:04:24;100709.94;;;9.24;93.29
78562;BME280;68963;52.138;5.446;2023-04-24T10:06:54;100713.78;;;9.36;92.48
78562;BME280;68963;52.138;5.446;2023-04-24T10:09:23;100712.38;;;9.55;92.14
78562;BME280;68963;52.138;5.446;2023-04-24T10:11:52;100716.81;;;9.69;89.30
78562;BME280;68963;52.138;5.446;2023-04-24T10:14:24;100714.19;;;9.69;91.02
78562;BME280;68963;52.138;5.446;2023-04-24T10:16:55;100730.22;;;9.74;89.72
78562;BME280;68963;52.138;5.446;2023-04-24T10:19:26;100730.47;;;9.79;91.21
78562;BME280;68963;52.138;5.446;2023-04-24T10:21:52;100721.31;;;9.75;88.63
78562;BME280;68963;52.138;5.446;2023-04-24T10:24:21;100723.88;;;9.68;88.17
78562;BME280;68963;52.138;5.446;2023-04-24T10:26:47;100730.41;;;9.73;88.46
78562;BME280;68963;52.138;5.446;2023-04-24T10:29:18;100735.72;;;9.79;87.47
78562;BME280;68963;52.138;5.446;2023-04-24T10:31:45;100737.63;;;9.85;87.37
78562;BME280;68963;52.138;5.446;2023-04-24T10:34:15;100742.28;;;10.05;85.85
78562;BME280;68963;52.138;5.446;2023-04-24T10:36:46;100733.03;;;10.30;86.63
78562;BME280;68963;52.138;5.446;2023-04-24T10:39:14;100745.59;;;10.50;84.53
78562;BME280;68963;52.138;5.446;2023-04-24T10:41:42;100742.31;;;10.69;83.04
78562;BME280;68963;52.138;5.446;2023-04-24T10:44:11;100748.59;;;10.68;80.01
78562;BME280;68963;52.138;5.446;2023-04-24T10:46:45;100744.34;;;10.74;79.72
78562;BME280;68963;52.138;5.446;2023-04-24T10:49:12;100748.53;;;10.89;79.30
78562;BME280;68963;52.138;5.446;2023-04-24T10:51:52;100763.34;;;10.91;78.08
78562;BME280;68963;52.138;5.446;2023-04-24T10:56:52;100767.09;;;10.53;80.31
78562;BME280;68963;52.138;5.446;2023-04-24T10:59:35;100760.09;;;10.24;81.66
78562;BME280;68963;52.138;5.446;2023-04-24T11:02:01;100768.66;;;10.26;82.93
78562;BME280;68963;52.138;5.446;2023-04-24T11:04:29;100763.69;;;10.16;81.57
78562;BME280;68963;52.138;5.446;2023-04-24T11:06:57;100779.69;;;10.00;83.26
78562;BME280;68963;52.138;5.446;2023-04-24T11:09:27;100772.00;;;9.84;83.25
78562;BME280;68963;52.138;5.446;2023-04-24T11:12:05;100774.13;;;9.74;83.54
78562;BME280;68963;52.138;5.446;2023-04-24T11:15:08;100786.28;;;9.60;84.57
78562;BME280;68963;52.138;5.446;2023-04-24T11:17:38;100799.53;;;9.52;86.73
78562;BME280;68963;52.138;5.446;2023-04-24T11:20:07;100797.59;;;9.46;87.70
78562;BME280;68963;52.138;5.446;2023-04-24T11:22:53;100802.50;;;9.49;89.30
78562;BME280;68963;52.138;5.446;2023-04-24T11:25:21;100812.47;;;9.53;90.55
78562;BME280;68963;52.138;5.446;2023-04-24T11:28:03;100813.13;;;9.70;89.82
78562;BME280;68963;52.138;5.446;2023-04-24T11:30:31;100818.00;;;9.73;89.51
78562;BME280;68963;52.138;5.446;2023-04-24T11:33:02;100806.28;;;10.05;89.88
78562;BME280;68963;52.138;5.446;2023-04-24T11:35:29;100813.72;;;10.38;89.28
78562;BME280;68963;52.138;5.446;2023-04-24T11:38:02;100805.75;;;10.96;87.36
78562;BME280;68963;52.138;5.446;2023-04-24T11:40:49;100817.31;;;11.57;85.88
78562;BME280;68963;52.138;5.446;2023-04-24T11:43:16;100809.16;;;11.52;82.61
78562;BME280;68963;52.138;5.446;2023-04-24T11:45:48;100814.97;;;11.34;81.99
78562;BME280;68963;52.138;5.446;2023-04-24T11:48:19;100815.44;;;11.17;82.98
78562;BME280;68963;52.138;5.446;2023-04-24T11:50:48;100822.84;;;11.06;84.03
78562;BME280;68963;52.138;5.446;2023-04-24T11:53:15;100818.66;;;11.12;81.18
78562;BME280;68963;52.138;5.446;2023-04-24T11:55:42;100829.34;;;11.32;81.61
78562;BME280;68963;52.138;5.446;2023-04-24T11:58:08;100827.13;;;11.35;79.34
78562;BME280;68963;52.138;5.446;2023-04-24T12:00:35;100829.53;;;11.65;78.42
78562;BME280;68963;52.138;5.446;2023-04-24T12:03:09;100830.19;;;12.08;76.35
78562;BME280;68963;52.138;5.446;2023-04-24T12:05:37;100851.31;;;12.15;73.36
78562;BME280;68963;52.138;5.446;2023-04-24T12:08:04;100849.06;;;12.12;72.37
78562;BME280;68963;52.138;5.446;2023-04-24T12:10:32;100843.56;;;11.72;74.26
78562;BME280;68963;52.138;5.446;2023-04-24T12:12:59;100847.16;;;11.58;74.38
78562;BME280;68963;52.138;5.446;2023-04-24T12:15:27;100836.47;;;11.38;75.25
78562;BME280;68963;52.138;5.446;2023-04-24T12:17:55;100848.25;;;11.14;73.00
78562;BME280;68963;52.138;5.446;2023-04-24T12:20:27;100861.22;;;10.87;74.53
78562;BME280;68963;52.138;5.446;2023-04-24T12:22:56;100869.44;;;10.78;74.80
78562;BME280;68963;52.138;5.446;2023-04-24T12:25:23;100871.50;;;10.61;76.07
78562;BME280;68963;52.138;5.446;2023-04-24T12:27:55;100868.13;;;10.46;75.12
78562;BME280;68963;52.138;5.446;2023-04-24T12:30:27;100881.19;;;10.39;77.12
78562;BME280;68963;52.138;5.446;2023-04-24T12:32:57;100877.31;;;10.35;75.99
78562;BME280;68963;52.138;5.446;2023-04-24T12:35:25;100878.19;;;10.42;78.38
78562;BME280;68963;52.138;5.446;2023-04-24T12:37:53;100874.69;;;10.56;78.69
78562;BME280;68963;52.138;5.446;2023-04-24T12:40:21;100883.63;;;10.77;77.64
78562;BME280;68963;52.138;5.446;2023-04-24T12:42:50;100883.25;;;10.80;73.67
78562;BME280;68963;52.138;5.446;2023-04-24T12:45:18;100891.91;;;10.74;73.73
78562;BME280;68963;52.138;5.446;2023-04-24T12:47:46;100892.25;;;10.71;71.81
78562;BME280;68963;52.138;5.446;2023-04-24T12:50:14;100893.91;;;10.72;72.53
78562;BME280;68963;52.138;5.446;2023-04-24T12:52:41;100898.09;;;10.66;73.38
78562;BME280;68963;52.138;5.446;2023-04-24T12:55:09;100903.94;;;10.61;74.04
78562;BME280;68963;52.138;5.446;2023-04-24T12:57:37;100911.69;;;10.48;73.01
78562;BME280;68963;52.138;5.446;2023-04-24T13:00:04;100920.41;;;10.34;74.96
78562;BME280;68963;52.138;5.446;2023-04-24T13:02:33;100918.59;;;10.20;76.04